Time;durP1;ratioP1;P1;durP2;ratioP2;P2;SDS_P1;SDS_P2;PMS_P1;PMS_P2;Temp;Humidity;BMP_temperature;BMP_pressure;BME280_temperature;BME280_humidity;BME280_pressure;Samples;Min_cycle;Max_cycle;Signal;HPM_P1;HPM_P2
2023/03/25 06:01:01;;;;;;;2.70;0.68;;;8.70;99.90;;;;;;7075697;23;20056;-78
2023/03/25 06:04:04;;;;;;;6.13;1.00;;;8.70;99.90;;;;;;6103321;29;20181;-79
2023/03/25 06:07:12;;;;;;;3.80;0.88;;;8.70;99.90;;;;;;6100467;29;20397;-78
2023/03/25 06:10:16;;;;;;;5.57;1.17;;;8.80;99.90;;;;;;6099994;29;20056;-76
2023/03/25 06:13:18;;;;;;;3.65;0.70;;;8.90;99.90;;;;;;6101324;29;20210;-76
2023/03/25 06:16:26;;;;;;;5.53;1.00;;;8.90;99.90;;;;;;6104348;29;20048;-77
2023/03/25 06:19:28;;;;;;;8.25;1.00;;;8.90;99.90;;;;;;6104262;29;20051;-79
2023/03/25 06:22:32;;;;;;;5.45;0.95;;;9.00;99.90;;;;;;6105896;29;20055;-77
2023/03/25 06:25:34;;;;;;;2.50;1.00;;;9.00;99.90;;;;;;6104799;29;20379;-76
2023/03/25 06:28:36;;;;;;;5.78;1.00;;;9.00;99.90;;;;;;6103917;29;20051;-79
2023/03/25 06:31:39;;;;;;;4.38;0.85;;;9.00;99.60;;;;;;6104521;29;20052;-78
2023/03/25 06:34:42;;;;;;;6.53;0.90;;;9.10;99.00;;;;;;6096335;29;20048;-77
2023/03/25 06:37:45;;;;;;;5.50;0.98;;;9.20;99.00;;;;;;6081770;29;20551;-79
2023/03/25 06:40:47;;;;;;;3.70;1.35;;;9.20;99.30;;;;;;6098592;29;20132;-76
2023/03/25 06:43:49;;;;;;;4.38;0.90;;;9.00;99.80;;;;;;6088653;29;20059;-80
2023/03/25 06:46:53;;;;;;;3.97;1.00;;;9.10;99.70;;;;;;6102301;29;20513;-79
2023/03/25 06:49:54;;;;;;;4.47;0.88;;;9.10;99.50;;;;;;6104224;29;20058;-76
2023/03/25 06:52:56;;;;;;;4.53;0.90;;;9.10;99.20;;;;;;6102886;29;20062;-78
2023/03/25 06:55:58;;;;;;;6.82;1.10;;;9.10;99.10;;;;;;6104762;29;20044;-78
2023/03/25 06:59:00;;;;;;;3.95;0.82;;;9.20;98.90;;;;;;6102920;29;20078;-78
2023/03/25 07:02:03;;;;;;;3.80;0.73;;;9.30;98.90;;;;;;6092605;29;20060;-77
2023/03/25 07:05:06;;;;;;;4.03;1.00;;;9.40;98.80;;;;;;6082029;29;20505;-76
2023/03/25 07:08:08;;;;;;;4.95;1.17;;;9.40;98.50;;;;;;6085769;29;20044;-78
2023/03/25 07:11:12;;;;;;;3.30;0.90;;;9.40;98.50;;;;;;6107842;29;20055;-77
2023/03/25 07:14:14;;;;;;;4.65;0.70;;;9.50;98.40;;;;;;6121056;29;20042;-80
2023/03/25 07:17:17;;;;;;;5.28;0.82;;;9.50;98.30;;;;;;6129507;29;20044;-77
2023/03/25 07:20:19;;;;;;;5.38;1.20;;;9.70;98.20;;;;;;6129087;29;20055;-78
2023/03/25 07:23:22;;;;;;;3.42;0.95;;;9.70;98.20;;;;;;6112053;29;20067;-78
2023/03/25 07:26:24;;;;;;;2.90;1.00;;;9.60;98.40;;;;;;6104539;29;20040;-78
2023/03/25 07:29:25;;;;;;;3.58;0.73;;;9.60;98.80;;;;;;6105854;29;20063;-77
2023/03/25 07:32:29;;;;;;;3.25;0.70;;;9.70;98.80;;;;;;6116759;29;20317;-77
2023/03/25 07:35:30;;;;;;;3.60;0.80;;;9.80;98.50;;;;;;6107298;29;20052;-78
2023/03/25 07:38:33;;;;;;;3.88;0.70;;;9.80;98.40;;;;;;6108042;29;20048;-78
2023/03/25 07:41:35;;;;;;;4.55;0.80;;;9.90;98.50;;;;;;6106258;29;20059;-75
2023/03/25 07:44:36;;;;;;;4.43;0.82;;;10.00;98.00;;;;;;6102984;29;20056;-77
2023/03/25 07:47:40;;;;;;;3.58;0.82;;;9.90;97.60;;;;;;6099449;29;20392;-77
2023/03/25 07:50:44;;;;;;;3.80;0.85;;;9.90;97.80;;;;;;6102853;29;20135;-81
2023/03/25 07:53:46;;;;;;;2.08;0.70;;;9.80;97.90;;;;;;6108842;29;20051;-79
2023/03/25 07:56:48;;;;;;;2.78;0.88;;;9.90;97.40;;;;;;6108479;29;20051;-75
2023/03/25 07:59:50;;;;;;;3.15;0.55;;;10.00;97.50;;;;;;6108511;29;20048;-77
2023/03/25 08:02:53;;;;;;;1.88;0.60;;;10.20;97.30;;;;;;6108357;29;20064;-76
2023/03/25 08:05:55;;;;;;;2.10;0.70;;;10.30;97.30;;;;;;6105460;29;20047;-80
2023/03/25 08:08:57;;;;;;;1.33;0.50;;;10.30;97.20;;;;;;6105717;29;20052;-77
2023/03/25 08:11:59;;;;;;;1.85;0.57;;;10.50;97.00;;;;;;6107279;29;20405;-79
2023/03/25 08:15:01;;;;;;;1.45;0.50;;;10.60;96.80;;;;;;6109001;29;20051;-77
2023/03/25 08:18:05;;;;;;;2.22;0.45;;;10.60;96.30;;;;;;6107309;29;20048;-79
2023/03/25 08:21:08;;;;;;;1.75;0.43;;;10.70;96.10;;;;;;6101008;29;20119;-78
2023/03/25 08:24:10;;;;;;;2.78;0.45;;;10.70;96.10;;;;;;6108993;29;20490;-75
2023/03/25 08:27:12;;;;;;;1.67;0.30;;;10.60;96.20;;;;;;6109462;29;20051;-79
2023/03/25 08:30:16;;;;;;;2.47;0.60;;;10.60;96.30;;;;;;6108181;29;20051;-76
2023/03/25 08:33:20;;;;;;;2.05;0.32;;;10.70;95.90;;;;;;6103216;29;20049;-78
2023/03/25 08:36:22;;;;;;;1.58;0.50;;;10.90;96.10;;;;;;6097730;29;20152;-80
2023/03/25 08:39:28;;;;;;;2.38;0.40;;;10.80;95.60;;;;;;6098729;29;20052;-77
2023/03/25 08:42:32;;;;;;;1.77;0.45;;;10.70;96.00;;;;;;6105071;29;20055;-79
2023/03/25 08:45:35;;;;;;;1.35;0.40;;;10.80;95.90;;;;;;6107137;29;20091;-79
2023/03/25 08:48:39;;;;;;;1.73;0.50;;;10.70;95.80;;;;;;6104333;29;20052;-79
2023/03/25 08:51:41;;;;;;;2.47;0.47;;;10.70;95.80;;;;;;6102235;29;20063;-78
2023/03/25 08:54:43;;;;;;;1.48;0.40;;;10.50;96.00;;;;;;6092182;29;20121;-78
2023/03/25 08:57:46;;;;;;;1.95;0.52;;;10.60;96.20;;;;;;6102503;29;20100;-75
2023/03/25 09:00:48;;;;;;;2.17;0.57;;;10.70;96.20;;;;;;6080567;29;20064;-81
2023/03/25 09:03:51;;;;;;;2.53;0.50;;;10.80;96.00;;;;;;6081725;29;20048;-80
2023/03/25 09:06:53;;;;;;;1.63;0.47;;;11.00;95.80;;;;;;6099672;29;20060;-80
2023/03/25 09:09:55;;;;;;;2.25;0.40;;;10.80;95.30;;;;;;6103150;29;20055;-79
2023/03/25 09:12:57;;;;;;;1.33;0.40;;;10.90;95.30;;;;;;6105202;29;20052;-79
2023/03/25 09:15:59;;;;;;;3.13;0.65;;;11.10;94.90;;;;;;6105930;29;20052;-81
2023/03/25 09:19:03;;;;;;;2.67;0.60;;;11.20;94.50;;;;;;6105858;29;20067;-79
2023/03/25 09:22:06;;;;;;;1.83;0.60;;;11.30;93.90;;;;;;6105946;29;20397;-80
2023/03/25 09:25:09;;;;;;;1.40;0.47;;;11.30;94.10;;;;;;6105621;29;20058;-79
2023/03/25 09:28:11;;;;;;;1.63;0.50;;;11.30;93.80;;;;;;6105274;29;20107;-82
2023/03/25 09:31:13;;;;;;;2.25;0.47;;;11.20;93.80;;;;;;6105486;29;20056;-80
2023/03/25 09:34:16;;;;;;;2.25;0.70;;;10.80;95.00;;;;;;6105730;29;20055;-81
2023/03/25 09:37:18;;;;;;;1.23;0.47;;;11.10;95.90;;;;;;6105222;29;20387;-79
2023/03/25 09:40:22;;;;;;;1.95;0.52;;;11.10;94.70;;;;;;6106015;29;20044;-79
2023/03/25 09:43:52;;;;;;;2.92;0.50;;;11.10;94.80;;;;;;6106092;29;20071;-80
2023/03/25 09:46:54;;;;;;;2.78;0.60;;;11.30;95.00;;;;;;6106115;29;20498;-78
2023/03/25 09:50:01;;;;;;;2.17;0.63;;;11.30;95.00;;;;;;6106523;29;20421;-80
2023/03/25 09:53:10;;;;;;;1.75;0.60;;;11.30;94.90;;;;;;6105632;29;20052;-80
2023/03/25 09:56:17;;;;;;;3.05;0.70;;;11.20;95.30;;;;;;6105164;29;20108;-80
2023/03/25 09:59:23;;;;;;;3.55;0.40;;;11.00;95.40;;;;;;6105266;29;20402;-81
2023/03/25 10:02:36;;;;;;;4.72;0.90;;;11.10;94.90;;;;;;6105053;29;20063;-79
2023/03/25 10:05:59;;;;;;;2.65;0.60;;;11.20;95.60;;;;;;6104955;29;20141;-80
2023/03/25 10:09:31;;;;;;;1.80;0.52;;;11.20;94.90;;;;;;6104942;29;20549;-80
2023/03/25 10:12:42;;;;;;;2.47;0.50;;;11.10;94.80;;;;;;6105174;29;20048;-78
2023/03/25 10:15:55;;;;;;;2.83;0.50;;;11.20;96.00;;;;;;6102539;29;20063;-81
2023/03/25 10:19:16;;;;;;;2.85;0.70;;;11.10;97.00;;;;;;6088036;29;20400;-79
2023/03/25 10:22:27;;;;;;;2.95;0.40;;;11.00;98.40;;;;;;6102660;29;20059;-80
2023/03/25 10:25:34;;;;;;;3.05;0.70;;;10.60;99.00;;;;;;6104597;29;20490;-82
2023/03/25 10:28:42;;;;;;;4.32;0.95;;;10.30;99.90;;;;;;6103756;29;20123;-77
2023/03/25 10:31:52;;;;;;;2.67;0.60;;;10.30;99.90;;;;;;6104603;29;20058;-78
2023/03/25 10:34:54;;;;;;;12.20;5.53;;;10.30;99.90;;;;;;6093505;29;20112;-78
2023/03/25 10:38:06;;;;;;;3.90;1.63;;;10.40;99.90;;;;;;6098348;29;20044;-80
2023/03/25 10:41:19;;;;;;;4.72;0.98;;;10.20;99.90;;;;;;6087534;29;20376;-77
2023/03/25 10:44:24;;;;;;;2.92;0.80;;;9.90;99.90;;;;;;6095071;29;20044;-74
2023/03/25 10:47:32;;;;;;;1.90;0.52;;;10.00;99.90;;;;;;6106256;29;20048;-76
2023/03/25 10:50:34;;;;;;;2.78;0.77;;;9.90;99.90;;;;;;6102074;29;20273;-80
2023/03/25 10:53:40;;;;;;;3.22;0.70;;;9.90;99.90;;;;;;6095429;29;20052;-76
2023/03/25 10:56:47;;;;;;;2.47;0.88;;;10.20;99.90;;;;;;6105149;29;20089;-77
2023/03/25 11:00:00;;;;;;;4.43;0.80;;;10.30;99.90;;;;;;6105743;29;20074;-75
2023/03/25 11:03:04;;;;;;;2.83;1.15;;;10.40;99.90;;;;;;6104501;29;20052;-79
2023/03/25 11:06:06;;;;;;;1.67;0.50;;;10.80;99.90;;;;;;6103505;29;20058;-78
2023/03/25 11:09:24;;;;;;;4.40;0.70;;;10.90;99.90;;;;;;6104535;29;20059;-80
2023/03/25 11:12:26;;;;;;;2.92;0.70;;;11.00;99.90;;;;;;6105119;29;20056;-77
2023/03/25 11:15:33;;;;;;;3.55;0.90;;;11.30;99.90;;;;;;6103324;29;20052;-79
2023/03/25 11:18:39;;;;;;;2.50;0.70;;;11.50;99.90;;;;;;6106131;29;20056;-77
2023/03/25 11:21:46;;;;;;;3.22;0.90;;;11.60;99.90;;;;;;6088670;29;20056;-78
2023/03/25 11:24:53;;;;;;;3.05;0.73;;;11.80;99.00;;;;;;6100031;29;20044;-79
2023/03/25 11:27:58;;;;;;;2.92;0.70;;;11.70;96.60;;;;;;6104718;29;20056;-81
2023/03/25 11:31:09;;;;;;;2.10;0.75;;;11.60;95.70;;;;;;6107549;29;20048;-86
2023/03/25 11:34:20;;;;;;;3.40;0.70;;;11.60;95.70;;;;;;6088491;29;20056;-80
2023/03/25 11:37:25;;;;;;;4.22;0.63;;;11.50;94.30;;;;;;6089224;29;20075;-79
2023/03/25 11:40:30;;;;;;;3.45;0.65;;;11.50;94.50;;;;;;6088394;29;20048;-78
2023/03/25 11:43:37;;;;;;;2.88;0.60;;;11.60;94.70;;;;;;6100596;29;20052;-77
2023/03/25 11:46:42;;;;;;;2.88;0.85;;;11.70;94.90;;;;;;6104521;29;20048;-82
2023/03/25 11:49:49;;;;;;;1.70;0.45;;;11.40;95.10;;;;;;6102465;29;20060;-78
2023/03/25 11:52:57;;;;;;;2.83;0.70;;;11.60;95.20;;;;;;6103678;29;20060;-77
2023/03/25 11:56:04;;;;;;;2.70;0.80;;;12.00;94.60;;;;;;6102853;29;20059;-76
2023/03/25 11:59:18;;;;;;;3.40;0.70;;;12.20;93.40;;;;;;6096395;29;20810;-78
2023/03/25 12:02:26;;;;;;;3.78;0.70;;;12.30;93.50;;;;;;6097026;29;20069;-76
2023/03/25 12:05:28;;;;;;;3.10;0.73;;;12.30;93.50;;;;;;6103296;29;20040;-78
2023/03/25 12:08:42;;;;;;;3.13;0.80;;;12.20;93.60;;;;;;6104672;29;20054;-80
2023/03/25 12:11:55;;;;;;;4.55;0.80;;;12.00;92.50;;;;;;6104294;29;20063;-77
2023/03/25 12:15:06;;;;;;;;;;;11.90;92.60;;;;;;6093751;29;20052;-78
2023/03/25 12:18:32;;;;;;;2.88;0.88;;;12.00;92.70;;;;;;6101046;29;19933;-78
2023/03/25 12:21:53;;;;;;;1.98;0.60;;;12.20;91.90;;;;;;6104606;29;20063;-79
2023/03/25 12:25:26;;;;;;;3.67;0.85;;;12.40;90.90;;;;;;6103235;29;20183;-82
2023/03/25 12:28:54;;;;;;;2.22;0.60;;;12.70;90.50;;;;;;6104040;29;20048;-80
2023/03/25 12:32:13;;;;;;;1.30;0.47;;;12.80;90.10;;;;;;6088340;29;20057;-80
2023/03/25 12:35:29;;;;;;;1.67;0.50;;;13.10;90.00;;;;;;6120386;29;20052;-81
2023/03/25 12:38:46;;;;;;;2.42;0.60;;;13.00;89.90;;;;;;6123357;29;20111;-80
2023/03/25 12:42:01;;;;;;;2.40;0.50;;;12.80;89.50;;;;;;6112820;29;20048;-81
2023/03/25 12:45:33;;;;;;;2.22;0.60;;;12.90;90.10;;;;;;6105896;29;20051;-80
2023/03/25 12:48:53;;;;;;;2.08;0.63;;;12.80;89.50;;;;;;6096771;29;20053;-78
2023/03/25 12:52:05;;;;;;;1.77;0.47;;;12.50;90.70;;;;;;6089995;29;20048;-80
2023/03/25 12:55:37;;;;;;;2.75;0.60;;;12.40;91.90;;;;;;6102935;29;20044;-80
2023/03/25 12:59:05;;;;;;;0.83;0.23;;;12.40;91.40;;;;;;6107444;29;20168;-82
2023/03/25 13:02:24;;;;;;;2.20;0.38;;;12.30;90.10;;;;;;6106247;29;20066;-82
2023/03/25 13:05:33;;;;;;;0.73;0.30;;;12.20;91.00;;;;;;6095084;29;20052;-82
2023/03/25 13:08:40;;;;;;;1.50;0.40;;;12.70;90.00;;;;;;6105342;29;20044;-81
2023/03/25 13:11:49;;;;;;;1.55;0.30;;;13.10;90.10;;;;;;6104746;29;20059;-82
2023/03/25 13:14:58;;;;;;;1.52;0.50;;;13.10;89.10;;;;;;6102644;29;20145;-79
2023/03/25 13:18:06;;;;;;;1.15;0.47;;;13.10;90.10;;;;;;6090219;29;20048;-79
2023/03/25 13:21:11;;;;;;;5.50;0.40;;;13.50;88.70;;;;;;6103282;29;20502;-79
2023/03/25 13:24:19;;;;;;;2.22;0.60;;;13.60;87.30;;;;;;6104572;29;20056;-78
2023/03/25 13:27:21;;;;;;;4.15;0.70;;;13.60;87.00;;;;;;6102153;29;20913;-80
2023/03/25 13:30:32;;;;;;;2.30;0.43;;;13.10;88.80;;;;;;6081182;29;20417;-79
2023/03/25 13:33:43;;;;;;;4.55;0.50;;;12.70;89.70;;;;;;6078494;29;20048;-81
2023/03/25 13:36:59;;;;;;;3.72;0.70;;;13.00;90.80;;;;;;6097864;29;20663;-79
2023/03/25 13:40:17;;;;;;;1.65;0.47;;;12.90;93.70;;;;;;6101838;29;20056;-79
2023/03/25 13:43:30;;;;;;;3.22;0.55;;;12.50;92.30;;;;;;6095989;29;20048;-79
2023/03/25 13:46:37;;;;;;;1.58;0.50;;;12.90;93.20;;;;;;6100727;29;20051;-78
2023/03/25 13:49:45;;;;;;;1.50;0.45;;;13.30;91.50;;;;;;6100696;29;20056;-77
2023/03/25 13:52:55;;;;;;;0.85;0.43;;;13.70;89.80;;;;;;6094449;29;20094;-78
2023/03/25 13:56:28;;;;;;;1.42;0.40;;;13.90;90.00;;;;;;6095213;29;20055;-79
2023/03/25 14:00:58;;;;;;;2.10;0.65;;;14.10;88.50;;;;;;6095772;29;20063;-79
2023/03/25 14:04:39;;;;;;;1.63;0.50;;;14.40;85.60;;;;;;6024950;29;20045;-77
2023/03/25 14:08:10;;;;;;;1.63;0.60;;;14.40;84.20;;;;;;6018537;29;20061;-78
2023/03/25 14:11:21;;;;;;;1.40;0.40;;;14.80;84.40;;;;;;6059936;29;20064;-79
2023/03/25 14:14:24;;;;;;;3.80;0.60;;;15.00;83.50;;;;;;6057325;29;20145;-78
2023/03/25 14:17:28;;;;;;;3.10;0.60;;;15.50;82.70;;;;;;6070137;29;20079;-77
2023/03/25 14:20:37;;;;;;;2.58;0.70;;;15.60;81.50;;;;;;6075776;29;20155;-77
2023/03/25 14:23:40;;;;;;;2.80;0.80;;;16.10;79.40;;;;;;6064647;29;20047;-75
2023/03/25 14:26:47;;;;;;;3.10;0.63;;;15.70;78.10;;;;;;6077594;29;20053;-78
2023/03/25 14:29:57;;;;;;;2.65;0.70;;;15.10;79.80;;;;;;6075729;29;20049;-78
2023/03/25 14:33:01;;;;;;;1.67;0.50;;;15.50;80.00;;;;;;6075383;29;20046;-77
2023/03/25 14:36:04;;;;;;;1.98;0.65;;;15.30;79.80;;;;;;6076840;29;20057;-78
2023/03/25 14:39:11;;;;;;;2.65;0.90;;;16.10;79.00;;;;;;6067808;29;20139;-79
2023/03/25 14:42:30;;;;;;;5.75;2.22;;;16.50;77.50;;;;;;6076613;29;20064;-77
2023/03/25 14:46:00;;;;;;;2.03;0.68;;;17.80;72.50;;;;;;6045385;29;20140;-78
2023/03/25 14:49:21;;;;;;;2.88;0.80;;;22.20;62.60;;;;;;6055434;29;20396;-76
2023/03/25 14:52:31;;;;;;;1.92;0.60;;;24.60;55.50;;;;;;6054087;29;20063;-78
2023/03/25 14:55:41;;;;;;;3.08;0.88;;;25.10;51.40;;;;;;6072123;29;20079;-76
2023/03/25 14:58:43;;;;;;;2.45;0.80;;;27.80;46.90;;;;;;6079277;29;20057;-77
2023/03/25 15:01:46;;;;;;;;;;;26.60;45.90;;;;;;6086301;29;20087;-79
2023/03/25 15:04:55;;;;;;;2.55;0.70;;;29.00;43.50;;;;;;6098723;29;19923;-77
2023/03/25 15:08:03;;;;;;;3.17;0.98;;;30.20;41.40;;;;;;6098209;29;20594;-76
2023/03/25 15:11:10;;;;;;;3.20;0.80;;;31.70;39.80;;;;;;6096817;29;20051;-75
2023/03/25 15:14:18;;;;;;;3.17;0.77;;;31.80;37.40;;;;;;6094270;29;20585;-75
2023/03/25 15:17:46;;;;;;;3.60;0.85;;;33.90;36.70;;;;;;6095909;29;20052;-75
2023/03/25 15:20:48;;;;;;;2.30;0.80;;;31.60;35.90;;;;;;6085341;29;20059;-75
2023/03/25 15:23:51;;;;;;;3.05;0.88;;;26.40;40.60;;;;;;6097501;29;20187;-75
2023/03/25 15:26:57;;;;;;;3.10;1.00;;;22.30;46.80;;;;;;6101403;29;20055;-77
2023/03/25 15:30:13;;;;;;;4.07;0.85;;;19.30;51.70;;;;;;6100735;29;20079;-76
2023/03/25 15:33:34;;;;;;;1.92;0.70;;;17.40;57.40;;;;;;6105527;29;20055;-76
2023/03/25 15:36:58;;;;;;;2.63;0.70;;;18.20;57.00;;;;;;6093772;29;20127;-79
2023/03/25 15:40:15;;;;;;;2.60;0.60;;;18.20;58.80;;;;;;6098683;29;20466;-77
2023/03/25 15:43:46;;;;;;;2.78;0.60;;;20.60;53.30;;;;;;6099859;29;20048;-78
2023/03/25 15:47:21;;;;;;;1.88;0.60;;;23.50;48.10;;;;;;6110584;29;20100;-78
2023/03/25 15:50:37;;;;;;;3.13;0.70;;;24.00;45.60;;;;;;6116567;29;20052;-78
2023/03/25 15:53:53;;;;;;;2.45;0.80;;;25.80;44.20;;;;;;6111182;29;20055;-76
2023/03/25 15:57:01;;;;;;;3.20;0.95;;;26.30;43.60;;;;;;6109792;29;20056;-76
2023/03/25 16:00:12;;;;;;;2.33;0.80;;;25.50;43.40;;;;;;6108529;29;20054;-76
2023/03/25 16:03:18;;;;;;;2.70;0.90;;;26.80;42.50;;;;;;6109760;29;20056;-77
2023/03/25 16:06:21;;;;;;;2.88;0.80;;;27.00;42.50;;;;;;6113258;29;20054;-77
2023/03/25 16:09:27;;;;;;;2.53;0.82;;;27.80;41.30;;;;;;6112948;29;20056;-75
2023/03/25 16:12:29;;;;;;;2.70;0.65;;;27.70;41.30;;;;;;6116089;29;20048;-76
2023/03/25 16:15:35;;;;;;;2.17;0.70;;;28.40;41.10;;;;;;6117654;29;20058;-79
2023/03/25 16:18:40;;;;;;;33.33;18.20;;;27.80;40.60;;;;;;6108371;29;20059;-76
2023/03/25 16:21:42;;;;;;;2.95;1.10;;;27.60;40.90;;;;;;6107370;29;20471;-78
2023/03/25 16:24:45;;;;;;;2.88;0.77;;;27.70;41.60;;;;;;6110572;29;20055;-76
2023/03/25 16:27:52;;;;;;;2.63;0.70;;;26.50;41.80;;;;;;6109665;29;20051;-77
2023/03/25 16:30:55;;;;;;;2.53;0.80;;;25.60;43.60;;;;;;6110110;29;20138;-76
2023/03/25 16:33:59;;;;;;;2.63;0.90;;;23.60;45.90;;;;;;6111359;29;20051;-77
2023/03/25 16:37:03;;;;;;;2.65;0.90;;;22.80;47.70;;;;;;6115749;29;20059;-77
2023/03/25 16:40:07;;;;;;;3.60;0.80;;;23.20;47.70;;;;;;6116549;29;20059;-76
2023/03/25 16:43:16;;;;;;;2.47;0.73;;;23.70;47.00;;;;;;6110586;29;20060;-78
2023/03/25 16:46:22;;;;;;;3.75;0.93;;;24.00;46.60;;;;;;6107248;29;20059;-76
2023/03/25 16:49:29;;;;;;;2.55;0.77;;;23.70;46.90;;;;;;6106246;29;20513;-76
2023/03/25 16:52:34;;;;;;;2.63;0.98;;;22.60;48.00;;;;;;6106424;29;20149;-77
2023/03/25 16:55:47;;;;;;;3.13;1.00;;;22.00;49.50;;;;;;6106683;29;20056;-76
2023/03/25 16:58:58;;;;;;;3.00;0.90;;;21.90;50.20;;;;;;6106075;29;20184;-74
2023/03/25 17:02:24;;;;;;;2.95;1.00;;;21.70;50.70;;;;;;6106146;29;20147;-76
2023/03/25 17:05:29;;;;;;;4.55;0.90;;;21.60;50.90;;;;;;6105656;29;20422;-77
2023/03/25 17:08:31;;;;;;;2.88;0.98;;;21.00;51.90;;;;;;6105976;29;20099;-78
2023/03/25 17:11:33;;;;;;;2.60;0.82;;;20.50;53.20;;;;;;6105508;29;20505;-75
2023/03/25 17:14:39;;;;;;;3.27;0.97;;;20.20;53.90;;;;;;6099874;29;20040;-77
2023/03/25 17:17:47;;;;;;;3.50;1.05;;;19.80;54.90;;;;;;6119643;29;20378;-76
2023/03/25 17:20:54;;;;;;;3.90;1.17;;;19.30;56.30;;;;;;6104485;29;20048;-75
2023/03/25 17:24:00;;;;;;;4.00;1.10;;;18.40;57.80;;;;;;6103982;29;20048;-77
2023/03/25 17:27:06;;;;;;;3.95;0.93;;;17.50;60.10;;;;;;6101666;29;20052;-75
2023/03/25 17:30:20;;;;;;;3.67;1.27;;;16.70;62.20;;;;;;6101971;29;20410;-78
2023/03/25 17:33:34;;;;;;;4.72;1.20;;;16.20;63.60;;;;;;6098772;29;20494;-76
2023/03/25 17:36:39;;;;;;;4.60;1.20;;;15.70;64.80;;;;;;6099801;29;20445;-75
2023/03/25 17:39:48;;;;;;;3.58;1.20;;;15.40;66.00;;;;;;6101996;29;20056;-73
2023/03/25 17:42:52;;;;;;;4.20;1.13;;;15.20;66.30;;;;;;6102168;29;20557;-77
2023/03/25 17:45:54;;;;;;;6.32;2.47;;;14.90;67.20;;;;;;6112361;29;20067;-79
2023/03/25 17:48:59;;;;;;;9.90;3.80;;;14.70;68.10;;;;;;6122094;29;20048;-77
2023/03/25 17:52:01;;;;;;;4.07;1.08;;;14.50;68.90;;;;;;6125352;29;20108;-75
2023/03/25 17:55:03;;;;;;;7.10;1.33;;;14.30;69.20;;;;;;6106550;29;20745;-78
2023/03/25 17:58:05;;;;;;;5.68;1.17;;;14.10;70.20;;;;;;6105468;29;20052;-79
2023/03/25 18:01:09;;;;;;;5.38;1.50;;;13.90;69.80;;;;;;6102632;29;20513;-79
2023/03/25 18:04:13;;;;;;;;;;;13.70;70.60;;;;;;6099329;29;20048;-80
2023/03/25 18:07:19;;;;;;;4.40;1.13;;;13.60;71.10;;;;;;6101959;29;20373;-79
2023/03/25 18:10:23;;;;;;;4.95;1.63;;;13.60;71.40;;;;;;6099845;29;20052;-81
2023/03/25 18:13:26;;;;;;;3.75;0.95;;;13.30;72.20;;;;;;6099904;29;20051;-79
2023/03/25 18:16:27;;;;;;;3.55;1.05;;;13.30;72.50;;;;;;6099353;29;20059;-80
2023/03/25 18:19:32;;;;;;;5.75;1.08;;;13.00;72.30;;;;;;6101424;29;20482;-78
2023/03/25 18:22:35;;;;;;;4.03;1.00;;;12.90;73.30;;;;;;6093792;29;20052;-78
2023/03/25 18:25:37;;;;;;;5.28;1.20;;;12.80;73.10;;;;;;6097670;29;20060;-78
2023/03/25 18:28:41;;;;;;;3.88;1.05;;;12.60;73.80;;;;;;6096598;29;20417;-81
2023/03/25 18:31:43;;;;;;;4.05;1.10;;;12.40;74.30;;;;;;6093671;29;20516;-83
2023/03/25 18:35:03;;;;;;;3.50;0.90;;;12.40;74.80;;;;;;6094472;29;20599;-80
2023/03/25 18:38:05;;;;;;;4.20;0.98;;;12.20;75.90;;;;;;6100443;29;20056;-82
2023/03/25 18:41:09;;;;;;;4.53;1.00;;;11.90;77.60;;;;;;6101134;29;20056;-79
2023/03/25 18:44:12;;;;;;;3.28;0.88;;;11.70;79.30;;;;;;6100424;29;20059;-82
2023/03/25 18:47:14;;;;;;;3.30;0.95;;;11.90;79.50;;;;;;6082453;29;20052;-80
2023/03/25 18:50:26;;;;;;;3.97;0.98;;;11.90;79.60;;;;;;6100401;29;20052;-82
2023/03/25 18:53:29;;;;;;;3.08;1.05;;;12.00;80.30;;;;;;6100741;29;20122;-81
2023/03/25 18:56:31;;;;;;;4.22;0.90;;;11.80;81.30;;;;;;6099914;29;20470;-81
2023/03/25 18:59:33;;;;;;;5.88;1.23;;;11.70;82.30;;;;;;6099363;29;20052;-80
2023/03/25 19:02:35;;;;;;;3.17;1.13;;;11.60;83.50;;;;;;6077560;29;20446;-81
2023/03/25 19:05:39;;;;;;;2.42;0.70;;;11.50;84.80;;;;;;6101818;29;20508;-80
2023/03/25 19:08:42;;;;;;;4.85;1.00;;;11.30;86.30;;;;;;6088042;29;20063;-85
2023/03/25 19:11:44;;;;;;;5.25;1.40;;;11.10;88.30;;;;;;6099670;29;20056;-79
2023/03/25 19:14:46;;;;;;;4.53;1.00;;;11.10;89.40;;;;;;6104548;29;20087;-81
2023/03/25 19:17:49;;;;;;;2.38;1.13;;;11.00;89.60;;;;;;6104813;29;20419;-81
2023/03/25 19:20:54;;;;;;;4.15;0.90;;;11.00;90.20;;;;;;6104793;29;20062;-81
2023/03/25 19:23:55;;;;;;;4.63;1.05;;;11.00;90.10;;;;;;6103652;29;20063;-79
2023/03/25 19:26:57;;;;;;;3.08;0.73;;;11.00;90.20;;;;;;6104208;29;20044;-79
2023/03/25 19:29:59;;;;;;;2.92;0.80;;;10.90;90.40;;;;;;6104381;29;20048;-79
2023/03/25 19:33:02;;;;;;;5.32;0.90;;;10.90;90.50;;;;;;6104738;29;20063;-79
2023/03/25 19:36:06;;;;;;;5.60;0.90;;;10.80;90.70;;;;;;6103119;29;20103;-81
2023/03/25 19:39:09;;;;;;;3.53;0.93;;;10.80;90.90;;;;;;6104616;29;20052;-78
2023/03/25 19:42:11;;;;;;;3.50;0.90;;;10.80;91.10;;;;;;6102540;29;20048;-76
2023/03/25 19:45:15;;;;;;;3.20;0.80;;;10.70;91.50;;;;;;6102478;29;20405;-77
2023/03/25 19:48:16;;;;;;;4.15;1.00;;;10.70;91.80;;;;;;6104504;29;20417;-79
2023/03/25 19:51:20;;;;;;;3.75;1.00;;;10.80;92.10;;;;;;6098505;29;20503;-77
2023/03/25 19:54:21;;;;;;;3.28;1.08;;;10.70;92.40;;;;;;6095279;29;20052;-78
2023/03/25 19:57:24;;;;;;;5.35;1.20;;;10.80;92.80;;;;;;6102955;29;20067;-80
2023/03/25 20:00:27;;;;;;;3.28;0.95;;;10.40;93.60;;;;;;6103625;29;20056;-82
2023/03/25 20:03:31;;;;;;;5.22;1.20;;;10.30;94.20;;;;;;6099971;29;20048;-79
2023/03/25 20:06:35;;;;;;;;;;;10.50;94.50;;;;;;6094571;29;20048;-79
2023/03/25 20:09:37;;;;;;;5.03;1.20;;;10.50;94.70;;;;;;6081696;29;19931;-79
2023/03/25 20:12:40;;;;;;;3.65;0.90;;;10.40;94.80;;;;;;6103028;29;20063;-79
2023/03/25 20:15:42;;;;;;;6.20;1.20;;;10.50;95.00;;;;;;6105701;29;20060;-81
2023/03/25 20:18:45;;;;;;;5.43;1.38;;;10.40;95.80;;;;;;6103680;29;20315;-79
2023/03/25 20:21:49;;;;;;;4.50;0.93;;;10.20;97.00;;;;;;6103018;29;20118;-79
2023/03/25 20:24:51;;;;;;;4.95;0.98;;;10.00;97.50;;;;;;6102906;29;20159;-78
2023/03/25 20:27:54;;;;;;;3.42;0.90;;;9.80;98.40;;;;;;6101911;29;20135;-80
2023/03/25 20:30:56;;;;;;;3.30;0.88;;;9.90;99.20;;;;;;6102068;29;20048;-82
2023/03/25 20:33:58;;;;;;;3.85;1.00;;;9.90;98.80;;;;;;6098476;29;20611;-81
2023/03/25 20:37:01;;;;;;;4.00;0.95;;;10.00;97.60;;;;;;6101394;29;20530;-78
2023/03/25 20:40:04;;;;;;;5.05;0.98;;;10.00;96.90;;;;;;6103406;29;20055;-78
2023/03/25 20:43:06;;;;;;;4.67;1.00;;;10.00;97.00;;;;;;6102939;29;20522;-79
2023/03/25 20:46:09;;;;;;;3.83;1.10;;;10.10;97.30;;;;;;6093858;29;20049;-81
2023/03/25 20:49:11;;;;;;;4.00;0.93;;;10.10;97.30;;;;;;6083242;29;20383;-83
2023/03/25 20:52:15;;;;;;;3.92;0.90;;;10.20;97.30;;;;;;6104189;29;20056;-83
2023/03/25 20:55:18;;;;;;;4.55;0.85;;;10.20;97.20;;;;;;6092633;29;20056;-82
2023/03/25 20:58:20;;;;;;;4.38;1.05;;;10.20;97.20;;;;;;6103037;29;20063;-79
2023/03/25 21:01:22;;;;;;;3.22;0.95;;;10.20;97.30;;;;;;6089333;29;20051;-83
2023/03/25 21:04:24;;;;;;;3.30;1.02;;;10.40;97.20;;;;;;6102600;29;20103;-81
2023/03/25 21:07:30;;;;;;;3.58;1.15;;;10.40;97.20;;;;;;6101961;29;20052;-80
2023/03/25 21:10:32;;;;;;;4.97;1.20;;;10.40;97.10;;;;;;6101254;29;20087;-79
2023/03/25 21:13:34;;;;;;;4.13;1.00;;;10.50;97.00;;;;;;6098602;29;20059;-78
2023/03/25 21:16:36;;;;;;;4.70;0.98;;;10.60;96.80;;;;;;6078920;29;20059;-79
2023/03/25 21:19:38;;;;;;;3.13;0.95;;;10.60;96.60;;;;;;6097394;29;20059;-77
2023/03/25 21:22:43;;;;;;;4.32;1.48;;;10.70;96.60;;;;;;6101302;29;20204;-79
2023/03/25 21:25:45;;;;;;;4.63;1.20;;;10.70;96.60;;;;;;6101772;29;20067;-79
2023/03/25 21:28:48;;;;;;;4.50;1.40;;;10.60;96.80;;;;;;6100667;29;20052;-78
2023/03/25 21:31:50;;;;;;;3.50;1.15;;;10.50;97.40;;;;;;6101471;29;20148;-79
2023/03/25 21:34:53;;;;;;;4.00;1.13;;;10.50;97.60;;;;;;6101361;29;20808;-78
2023/03/25 21:37:59;;;;;;;5.90;1.35;;;10.40;98.20;;;;;;6100817;29;20143;-78
2023/03/25 21:41:04;;;;;;;4.82;1.40;;;10.40;98.70;;;;;;6110268;29;20078;-80
2023/03/25 21:44:06;;;;;;;7.93;1.67;;;10.50;98.70;;;;;;6109324;29;20498;-79
2023/03/25 21:47:08;;;;;;;4.40;1.50;;;10.40;99.00;;;;;;6112055;29;20145;-79
2023/03/25 21:50:13;;;;;;;4.93;1.20;;;10.30;99.80;;;;;;6095677;29;20502;-76
2023/03/25 21:53:17;;;;;;;6.60;1.50;;;10.20;99.90;;;;;;6079527;29;20056;-78
2023/03/25 21:56:23;;;;;;;4.85;1.20;;;10.10;99.90;;;;;;6102093;29;20048;-77
2023/03/25 21:59:25;;;;;;;4.07;1.33;;;10.10;99.90;;;;;;6101339;29;20063;-79
2023/03/25 22:02:28;;;;;;;6.03;1.48;;;10.20;99.90;;;;;;6087963;29;20064;-77
2023/03/25 22:05:31;;;;;;;3.85;1.17;;;10.30;99.90;;;;;;6078653;29;20056;-79
2023/03/25 22:08:36;;;;;;;8.80;1.50;;;10.30;99.90;;;;;;6098175;29;20130;-80
2023/03/25 22:11:38;;;;;;;27.30;12.23;;;10.30;99.90;;;;;;6101954;29;20060;-80
2023/03/25 22:14:40;;;;;;;19.75;8.27;;;10.30;99.90;;;;;;6092473;29;20192;-78